Terminal Aerodrome Forecast
Issued by NWS Mt. Holly, NJ

Home | Current Version | Previous Version | Text Only | Print | Product List | Glossary On
Versions: 1 2 3 4 5 6 7 8 9 10 11 12 13 14 15 16 17 18 19 20 21 22 23
000
FTUS41 KPHI 301127
TAFILG
TAF
KILG 301127Z 3012/3112 10007KT P6SM OVC009
      TEMPO 3012/3014 OVC012
     FM301400 12008KT P6SM VCSH OVC006
     FM310000 14008KT 5SM BR OVC005 PROB30 3101/3105 2SM -SHRA
     FM310500 15006KT 1SM -DZ OVC003=

USA.gov is the U.S. government's official web portal to all federal, state and local government web resources and services.